sensor_id;sensor_type;location;lat;lon;timestamp;P1;durP1;ratioP1;P2;durP2;ratioP2
32613;SDS011;19031;51.400;6.770;2023-08-30T00:00:07;10.82;;;6.05;;
32613;SDS011;19031;51.400;6.770;2023-08-30T00:02:34;8.30;;;6.32;;
32613;SDS011;19031;51.400;6.770;2023-08-30T00:04:59;12.75;;;6.90;;
32613;SDS011;19031;51.400;6.770;2023-08-30T00:07:26;14.02;;;6.85;;
32613;SDS011;19031;51.400;6.770;2023-08-30T00:09:51;10.43;;;6.57;;
32613;SDS011;19031;51.400;6.770;2023-08-30T00:12:17;11.18;;;6.43;;
32613;SDS011;19031;51.400;6.770;2023-08-30T00:14:42;10.45;;;6.57;;
32613;SDS011;19031;51.400;6.770;2023-08-30T00:17:08;10.65;;;7.15;;
32613;SDS011;19031;51.400;6.770;2023-08-30T00:19:34;8.93;;;5.82;;
32613;SDS011;19031;51.400;6.770;2023-08-30T00:21:59;8.30;;;6.03;;
32613;SDS011;19031;51.400;6.770;2023-08-30T00:24:25;10.32;;;6.53;;
32613;SDS011;19031;51.400;6.770;2023-08-30T00:26:51;12.05;;;6.35;;
32613;SDS011;19031;51.400;6.770;2023-08-30T00:29:16;11.20;;;7.18;;
32613;SDS011;19031;51.400;6.770;2023-08-30T00:31:42;12.57;;;8.15;;
32613;SDS011;19031;51.400;6.770;2023-08-30T00:34:08;13.38;;;6.85;;
32613;SDS011;19031;51.400;6.770;2023-08-30T00:36:33;8.90;;;6.65;;
32613;SDS011;19031;51.400;6.770;2023-08-30T00:38:59;9.63;;;5.90;;
32613;SDS011;19031;51.400;6.770;2023-08-30T00:41:24;10.70;;;6.10;;
32613;SDS011;19031;51.400;6.770;2023-08-30T00:43:50;8.52;;;6.25;;
32613;SDS011;19031;51.400;6.770;2023-08-30T00:46:15;9.70;;;6.60;;
32613;SDS011;19031;51.400;6.770;2023-08-30T00:48:41;10.50;;;6.82;;
32613;SDS011;19031;51.400;6.770;2023-08-30T00:51:07;14.98;;;7.03;;
32613;SDS011;19031;51.400;6.770;2023-08-30T00:53:33;9.02;;;6.15;;
32613;SDS011;19031;51.400;6.770;2023-08-30T00:55:58;8.57;;;6.28;;
32613;SDS011;19031;51.400;6.770;2023-08-30T00:58:24;10.95;;;7.88;;
32613;SDS011;19031;51.400;6.770;2023-08-30T01:00:52;9.75;;;7.35;;
32613;SDS011;19031;51.400;6.770;2023-08-30T01:03:18;12.50;;;8.48;;
32613;SDS011;19031;51.400;6.770;2023-08-30T01:05:45;11.27;;;7.57;;
32613;SDS011;19031;51.400;6.770;2023-08-30T01:08:10;11.77;;;7.13;;
32613;SDS011;19031;51.400;6.770;2023-08-30T01:10:49;11.30;;;8.05;;
32613;SDS011;19031;51.400;6.770;2023-08-30T01:13:37;14.80;;;7.53;;
32613;SDS011;19031;51.400;6.770;2023-08-30T01:16:09;13.95;;;8.43;;
32613;SDS011;19031;51.400;6.770;2023-08-30T01:18:36;15.60;;;8.82;;
32613;SDS011;19031;51.400;6.770;2023-08-30T01:21:04;14.95;;;10.05;;
32613;SDS011;19031;51.400;6.770;2023-08-30T01:28:45;17.50;;;11.00;;
32613;SDS011;19031;51.400;6.770;2023-08-30T01:31:13;18.88;;;12.65;;
32613;SDS011;19031;51.400;6.770;2023-08-30T01:33:40;20.02;;;13.27;;
32613;SDS011;19031;51.400;6.770;2023-08-30T01:36:06;22.38;;;14.13;;
32613;SDS011;19031;51.400;6.770;2023-08-30T01:38:33;21.45;;;14.63;;
32613;SDS011;19031;51.400;6.770;2023-08-30T01:41:00;21.27;;;15.88;;
32613;SDS011;19031;51.400;6.770;2023-08-30T01:43:27;21.40;;;14.73;;
32613;SDS011;19031;51.400;6.770;2023-08-30T01:45:56;18.15;;;13.40;;
32613;SDS011;19031;51.400;6.770;2023-08-30T01:48:23;19.33;;;13.77;;
32613;SDS011;19031;51.400;6.770;2023-08-30T01:50:50;18.77;;;12.43;;
32613;SDS011;19031;51.400;6.770;2023-08-30T01:53:16;26.52;;;14.45;;
32613;SDS011;19031;51.400;6.770;2023-08-30T01:55:42;20.95;;;14.35;;
32613;SDS011;19031;51.400;6.770;2023-08-30T01:58:08;21.70;;;15.13;;
32613;SDS011;19031;51.400;6.770;2023-08-30T02:00:35;20.60;;;13.25;;
32613;SDS011;19031;51.400;6.770;2023-08-30T02:03:06;23.25;;;15.10;;
32613;SDS011;19031;51.400;6.770;2023-08-30T02:05:36;20.20;;;13.95;;
32613;SDS011;19031;51.400;6.770;2023-08-30T02:08:17;18.90;;;12.65;;
32613;SDS011;19031;51.400;6.770;2023-08-30T02:10:52;21.58;;;12.85;;
32613;SDS011;19031;51.400;6.770;2023-08-30T02:13:25;16.92;;;12.68;;
32613;SDS011;19031;51.400;6.770;2023-08-30T02:15:51;22.00;;;14.05;;
32613;SDS011;19031;51.400;6.770;2023-08-30T02:18:20;20.42;;;13.63;;
32613;SDS011;19031;51.400;6.770;2023-08-30T02:20:46;23.17;;;13.13;;
32613;SDS011;19031;51.400;6.770;2023-08-30T02:23:12;19.10;;;12.30;;
32613;SDS011;19031;51.400;6.770;2023-08-30T02:25:37;22.75;;;15.30;;
32613;SDS011;19031;51.400;6.770;2023-08-30T02:28:03;23.33;;;16.35;;
32613;SDS011;19031;51.400;6.770;2023-08-30T02:30:29;22.73;;;15.18;;
32613;SDS011;19031;51.400;6.770;2023-08-30T02:32:55;20.75;;;14.65;;
32613;SDS011;19031;51.400;6.770;2023-08-30T02:35:20;19.33;;;13.80;;
32613;SDS011;19031;51.400;6.770;2023-08-30T02:37:46;26.88;;;16.33;;
32613;SDS011;19031;51.400;6.770;2023-08-30T02:40:11;19.85;;;14.07;;
32613;SDS011;19031;51.400;6.770;2023-08-30T02:42:37;18.60;;;13.32;;
32613;SDS011;19031;51.400;6.770;2023-08-30T02:45:03;24.35;;;15.75;;
32613;SDS011;19031;51.400;6.770;2023-08-30T02:47:29;21.70;;;15.10;;
32613;SDS011;19031;51.400;6.770;2023-08-30T02:49:54;23.45;;;15.20;;
32613;SDS011;19031;51.400;6.770;2023-08-30T02:52:20;22.23;;;16.13;;
32613;SDS011;19031;51.400;6.770;2023-08-30T02:54:45;25.40;;;16.83;;
32613;SDS011;19031;51.400;6.770;2023-08-30T02:57:11;26.92;;;16.67;;
32613;SDS011;19031;51.400;6.770;2023-08-30T02:59:37;21.75;;;15.15;;
32613;SDS011;19031;51.400;6.770;2023-08-30T03:02:02;21.70;;;15.80;;
32613;SDS011;19031;51.400;6.770;2023-08-30T03:04:28;24.08;;;15.50;;
32613;SDS011;19031;51.400;6.770;2023-08-30T03:06:53;25.25;;;16.00;;
32613;SDS011;19031;51.400;6.770;2023-08-30T03:09:19;23.33;;;16.55;;
32613;SDS011;19031;51.400;6.770;2023-08-30T03:11:45;25.25;;;16.88;;
32613;SDS011;19031;51.400;6.770;2023-08-30T03:14:13;23.00;;;15.02;;
32613;SDS011;19031;51.400;6.770;2023-08-30T03:16:41;25.40;;;17.45;;
32613;SDS011;19031;51.400;6.770;2023-08-30T03:19:07;25.23;;;18.13;;
32613;SDS011;19031;51.400;6.770;2023-08-30T03:21:33;27.13;;;18.73;;
32613;SDS011;19031;51.400;6.770;2023-08-30T03:23:59;30.67;;;18.30;;
32613;SDS011;19031;51.400;6.770;2023-08-30T03:26:24;25.75;;;18.27;;
32613;SDS011;19031;51.400;6.770;2023-08-30T03:28:50;23.83;;;17.35;;
32613;SDS011;19031;51.400;6.770;2023-08-30T03:31:16;28.67;;;19.45;;
32613;SDS011;19031;51.400;6.770;2023-08-30T03:33:43;24.67;;;17.33;;
32613;SDS011;19031;51.400;6.770;2023-08-30T03:36:10;26.60;;;18.90;;
32613;SDS011;19031;51.400;6.770;2023-08-30T03:38:36;28.25;;;18.48;;
32613;SDS011;19031;51.400;6.770;2023-08-30T03:41:03;24.67;;;16.77;;
32613;SDS011;19031;51.400;6.770;2023-08-30T03:43:34;24.58;;;17.23;;
32613;SDS011;19031;51.400;6.770;2023-08-30T03:46:00;28.10;;;19.67;;
32613;SDS011;19031;51.400;6.770;2023-08-30T03:48:28;27.30;;;17.50;;
32613;SDS011;19031;51.400;6.770;2023-08-30T03:50:55;26.08;;;17.27;;
32613;SDS011;19031;51.400;6.770;2023-08-30T03:53:20;26.30;;;17.20;;
32613;SDS011;19031;51.400;6.770;2023-08-30T03:55:46;26.52;;;18.02;;
32613;SDS011;19031;51.400;6.770;2023-08-30T03:58:12;25.60;;;17.58;;
32613;SDS011;19031;51.400;6.770;2023-08-30T04:00:38;25.75;;;18.02;;
32613;SDS011;19031;51.400;6.770;2023-08-30T04:03:04;20.55;;;14.25;;
32613;SDS011;19031;51.400;6.770;2023-08-30T04:05:34;26.02;;;17.98;;
32613;SDS011;19031;51.400;6.770;2023-08-30T04:08:03;35.50;;;18.25;;
32613;SDS011;19031;51.400;6.770;2023-08-30T04:10:34;28.48;;;18.17;;
32613;SDS011;19031;51.400;6.770;2023-08-30T04:13:00;29.15;;;18.38;;
32613;SDS011;19031;51.400;6.770;2023-08-30T04:15:26;26.48;;;18.65;;
32613;SDS011;19031;51.400;6.770;2023-08-30T04:17:52;27.23;;;18.75;;
32613;SDS011;19031;51.400;6.770;2023-08-30T04:20:17;22.35;;;16.42;;
32613;SDS011;19031;51.400;6.770;2023-08-30T04:22:43;24.90;;;18.60;;
32613;SDS011;19031;51.400;6.770;2023-08-30T04:25:09;26.35;;;18.77;;
32613;SDS011;19031;51.400;6.770;2023-08-30T04:27:34;30.60;;;19.80;;
32613;SDS011;19031;51.400;6.770;2023-08-30T04:30:01;37.38;;;23.80;;
32613;SDS011;19031;51.400;6.770;2023-08-30T04:32:27;31.80;;;22.10;;
32613;SDS011;19031;51.400;6.770;2023-08-30T04:34:53;33.72;;;20.83;;
32613;SDS011;19031;51.400;6.770;2023-08-30T04:37:21;23.65;;;18.05;;
32613;SDS011;19031;51.400;6.770;2023-08-30T04:39:47;34.30;;;22.13;;
32613;SDS011;19031;51.400;6.770;2023-08-30T04:42:14;33.13;;;21.63;;
32613;SDS011;19031;51.400;6.770;2023-08-30T04:44:40;42.83;;;24.63;;
32613;SDS011;19031;51.400;6.770;2023-08-30T04:47:06;35.75;;;23.15;;
32613;SDS011;19031;51.400;6.770;2023-08-30T04:49:31;41.38;;;25.17;;
32613;SDS011;19031;51.400;6.770;2023-08-30T04:51:57;33.80;;;21.65;;
32613;SDS011;19031;51.400;6.770;2023-08-30T04:54:22;37.92;;;24.42;;
32613;SDS011;19031;51.400;6.770;2023-08-30T04:56:48;38.58;;;25.25;;
32613;SDS011;19031;51.400;6.770;2023-08-30T04:59:14;39.35;;;26.35;;
32613;SDS011;19031;51.400;6.770;2023-08-30T05:01:42;36.88;;;22.25;;
32613;SDS011;19031;51.400;6.770;2023-08-30T05:04:09;31.60;;;22.55;;
32613;SDS011;19031;51.400;6.770;2023-08-30T05:06:35;44.53;;;26.67;;
32613;SDS011;19031;51.400;6.770;2023-08-30T05:09:01;41.67;;;27.50;;
32613;SDS011;19031;51.400;6.770;2023-08-30T05:11:27;38.58;;;24.70;;
32613;SDS011;19031;51.400;6.770;2023-08-30T05:13:54;46.15;;;29.25;;
32613;SDS011;19031;51.400;6.770;2023-08-30T05:16:22;45.28;;;26.52;;
32613;SDS011;19031;51.400;6.770;2023-08-30T05:18:48;38.45;;;25.95;;
32613;SDS011;19031;51.400;6.770;2023-08-30T05:21:14;42.30;;;28.38;;
32613;SDS011;19031;51.400;6.770;2023-08-30T05:23:39;35.53;;;25.08;;
32613;SDS011;19031;51.400;6.770;2023-08-30T05:26:11;37.58;;;27.33;;
32613;SDS011;19031;51.400;6.770;2023-08-30T05:28:41;32.35;;;22.27;;
32613;SDS011;19031;51.400;6.770;2023-08-30T05:31:07;36.03;;;24.83;;
32613;SDS011;19031;51.400;6.770;2023-08-30T05:33:32;34.17;;;23.02;;
32613;SDS011;19031;51.400;6.770;2023-08-30T05:35:58;30.02;;;21.77;;
32613;SDS011;19031;51.400;6.770;2023-08-30T05:38:24;37.35;;;25.70;;
32613;SDS011;19031;51.400;6.770;2023-08-30T05:40:49;35.90;;;24.95;;
32613;SDS011;19031;51.400;6.770;2023-08-30T05:43:15;35.97;;;24.42;;
32613;SDS011;19031;51.400;6.770;2023-08-30T05:45:41;35.08;;;23.27;;
32613;SDS011;19031;51.400;6.770;2023-08-30T05:48:09;35.58;;;25.90;;
32613;SDS011;19031;51.400;6.770;2023-08-30T05:50:35;36.47;;;25.30;;
32613;SDS011;19031;51.400;6.770;2023-08-30T05:53:00;36.00;;;25.50;;
32613;SDS011;19031;51.400;6.770;2023-08-30T05:55:28;34.53;;;22.30;;
32613;SDS011;19031;51.400;6.770;2023-08-30T05:57:53;38.72;;;25.60;;
32613;SDS011;19031;51.400;6.770;2023-08-30T06:00:19;36.92;;;25.98;;
32613;SDS011;19031;51.400;6.770;2023-08-30T06:02:45;37.10;;;25.10;;
32613;SDS011;19031;51.400;6.770;2023-08-30T06:05:11;34.53;;;25.02;;
32613;SDS011;19031;51.400;6.770;2023-08-30T06:07:36;33.47;;;24.38;;
32613;SDS011;19031;51.400;6.770;2023-08-30T06:10:02;35.17;;;23.92;;
32613;SDS011;19031;51.400;6.770;2023-08-30T06:12:29;39.72;;;24.48;;
32613;SDS011;19031;51.400;6.770;2023-08-30T06:14:55;35.15;;;23.63;;
32613;SDS011;19031;51.400;6.770;2023-08-30T06:17:21;30.70;;;22.98;;
32613;SDS011;19031;51.400;6.770;2023-08-30T06:19:47;34.63;;;23.85;;
32613;SDS011;19031;51.400;6.770;2023-08-30T06:22:13;36.55;;;23.50;;
32613;SDS011;19031;51.400;6.770;2023-08-30T06:24:39;32.05;;;23.30;;
32613;SDS011;19031;51.400;6.770;2023-08-30T06:27:05;33.08;;;23.48;;
32613;SDS011;19031;51.400;6.770;2023-08-30T06:29:30;32.78;;;21.50;;
32613;SDS011;19031;51.400;6.770;2023-08-30T06:31:56;27.10;;;20.50;;
32613;SDS011;19031;51.400;6.770;2023-08-30T06:34:22;27.83;;;20.77;;
32613;SDS011;19031;51.400;6.770;2023-08-30T06:36:48;31.45;;;21.77;;
32613;SDS011;19031;51.400;6.770;2023-08-30T06:39:14;32.22;;;20.50;;
32613;SDS011;19031;51.400;6.770;2023-08-30T06:41:39;26.85;;;20.40;;
32613;SDS011;19031;51.400;6.770;2023-08-30T06:44:08;24.50;;;18.98;;
32613;SDS011;19031;51.400;6.770;2023-08-30T06:46:33;25.42;;;18.45;;
32613;SDS011;19031;51.400;6.770;2023-08-30T06:48:59;24.63;;;18.95;;
32613;SDS011;19031;51.400;6.770;2023-08-30T06:51:25;28.40;;;19.30;;
32613;SDS011;19031;51.400;6.770;2023-08-30T06:53:53;24.83;;;18.73;;
32613;SDS011;19031;51.400;6.770;2023-08-30T06:56:20;25.83;;;18.20;;
32613;SDS011;19031;51.400;6.770;2023-08-30T06:58:46;24.45;;;17.85;;
32613;SDS011;19031;51.400;6.770;2023-08-30T07:01:17;20.10;;;16.90;;
32613;SDS011;19031;51.400;6.770;2023-08-30T07:03:43;22.40;;;17.55;;
32613;SDS011;19031;51.400;6.770;2023-08-30T07:06:09;18.73;;;15.73;;
32613;SDS011;19031;51.400;6.770;2023-08-30T07:08:35;22.25;;;15.57;;
32613;SDS011;19031;51.400;6.770;2023-08-30T07:11:00;17.75;;;14.20;;
32613;SDS011;19031;51.400;6.770;2023-08-30T07:13:26;19.25;;;14.43;;
32613;SDS011;19031;51.400;6.770;2023-08-30T07:15:54;20.55;;;13.57;;
32613;SDS011;19031;51.400;6.770;2023-08-30T07:18:20;17.00;;;12.00;;
32613;SDS011;19031;51.400;6.770;2023-08-30T07:20:46;16.88;;;12.60;;
32613;SDS011;19031;51.400;6.770;2023-08-30T07:23:11;16.23;;;11.80;;
32613;SDS011;19031;51.400;6.770;2023-08-30T07:25:37;20.80;;;12.10;;
32613;SDS011;19031;51.400;6.770;2023-08-30T07:28:04;17.23;;;11.05;;
32613;SDS011;19031;51.400;6.770;2023-08-30T07:30:30;15.90;;;10.88;;
32613;SDS011;19031;51.400;6.770;2023-08-30T07:32:56;16.95;;;11.68;;
32613;SDS011;19031;51.400;6.770;2023-08-30T07:35:22;15.25;;;9.82;;
32613;SDS011;19031;51.400;6.770;2023-08-30T07:37:48;12.73;;;9.38;;
32613;SDS011;19031;51.400;6.770;2023-08-30T07:40:14;12.88;;;9.02;;
32613;SDS011;19031;51.400;6.770;2023-08-30T07:42:39;15.30;;;10.05;;
32613;SDS011;19031;51.400;6.770;2023-08-30T07:45:06;12.63;;;8.65;;
32613;SDS011;19031;51.400;6.770;2023-08-30T07:47:32;12.00;;;8.57;;
32613;SDS011;19031;51.400;6.770;2023-08-30T07:49:58;13.02;;;8.50;;
32613;SDS011;19031;51.400;6.770;2023-08-30T07:52:24;14.32;;;8.05;;
32613;SDS011;19031;51.400;6.770;2023-08-30T07:54:49;13.10;;;8.52;;
32613;SDS011;19031;51.400;6.770;2023-08-30T07:57:15;13.38;;;7.55;;
32613;SDS011;19031;51.400;6.770;2023-08-30T07:59:40;9.90;;;7.38;;
32613;SDS011;19031;51.400;6.770;2023-08-30T08:02:06;13.10;;;7.72;;
32613;SDS011;19031;51.400;6.770;2023-08-30T08:04:33;14.35;;;7.55;;
32613;SDS011;19031;51.400;6.770;2023-08-30T08:06:59;11.85;;;7.25;;
32613;SDS011;19031;51.400;6.770;2023-08-30T08:09:24;15.93;;;6.00;;
32613;SDS011;19031;51.400;6.770;2023-08-30T08:11:50;9.98;;;7.10;;
32613;SDS011;19031;51.400;6.770;2023-08-30T08:14:17;9.50;;;5.05;;
32613;SDS011;19031;51.400;6.770;2023-08-30T08:16:43;6.78;;;4.38;;
32613;SDS011;19031;51.400;6.770;2023-08-30T08:19:09;8.60;;;5.20;;
32613;SDS011;19031;51.400;6.770;2023-08-30T08:21:35;6.40;;;4.22;;
32613;SDS011;19031;51.400;6.770;2023-08-30T08:24:03;9.13;;;3.67;;
32613;SDS011;19031;51.400;6.770;2023-08-30T08:26:29;6.93;;;3.97;;
32613;SDS011;19031;51.400;6.770;2023-08-30T08:28:54;7.70;;;3.80;;
32613;SDS011;19031;51.400;6.770;2023-08-30T08:31:21;6.47;;;4.45;;
32613;SDS011;19031;51.400;6.770;2023-08-30T08:33:49;6.97;;;4.13;;
32613;SDS011;19031;51.400;6.770;2023-08-30T08:36:26;7.57;;;4.05;;
32613;SDS011;19031;51.400;6.770;2023-08-30T08:38:52;6.00;;;3.97;;
32613;SDS011;19031;51.400;6.770;2023-08-30T08:41:18;10.88;;;4.07;;
32613;SDS011;19031;51.400;6.770;2023-08-30T08:43:44;7.60;;;3.58;;
32613;SDS011;19031;51.400;6.770;2023-08-30T08:46:11;10.15;;;3.55;;
32613;SDS011;19031;51.400;6.770;2023-08-30T08:48:47;7.70;;;3.72;;
32613;SDS011;19031;51.400;6.770;2023-08-30T08:51:15;7.03;;;3.88;;
32613;SDS011;19031;51.400;6.770;2023-08-30T08:53:42;6.43;;;3.33;;
32613;SDS011;19031;51.400;6.770;2023-08-30T08:56:09;8.32;;;3.80;;
32613;SDS011;19031;51.400;6.770;2023-08-30T08:58:37;5.28;;;3.10;;
32613;SDS011;19031;51.400;6.770;2023-08-30T09:01:04;10.95;;;4.20;;
32613;SDS011;19031;51.400;6.770;2023-08-30T09:03:32;10.73;;;3.65;;
32613;SDS011;19031;51.400;6.770;2023-08-30T09:06:02;10.25;;;4.03;;
32613;SDS011;19031;51.400;6.770;2023-08-30T09:08:28;7.80;;;3.47;;
32613;SDS011;19031;51.400;6.770;2023-08-30T09:10:54;8.05;;;3.97;;
32613;SDS011;19031;51.400;6.770;2023-08-30T09:13:19;7.05;;;3.55;;
32613;SDS011;19031;51.400;6.770;2023-08-30T09:15:47;6.90;;;3.42;;
32613;SDS011;19031;51.400;6.770;2023-08-30T09:18:14;7.50;;;2.75;;
32613;SDS011;19031;51.400;6.770;2023-08-30T09:20:49;7.80;;;3.65;;
32613;SDS011;19031;51.400;6.770;2023-08-30T09:23:21;8.13;;;4.10;;
32613;SDS011;19031;51.400;6.770;2023-08-30T09:28:23;6.90;;;3.70;;
32613;SDS011;19031;51.400;6.770;2023-08-30T09:30:49;12.30;;;3.45;;
32613;SDS011;19031;51.400;6.770;2023-08-30T09:33:20;9.43;;;3.80;;
32613;SDS011;19031;51.400;6.770;2023-08-30T09:35:55;7.88;;;4.40;;
32613;SDS011;19031;51.400;6.770;2023-08-30T09:38:21;9.23;;;4.38;;
32613;SDS011;19031;51.400;6.770;2023-08-30T09:40:50;8.05;;;4.88;;
32613;SDS011;19031;51.400;6.770;2023-08-30T09:43:33;8.18;;;4.68;;
32613;SDS011;19031;51.400;6.770;2023-08-30T09:46:02;9.02;;;4.90;;
32613;SDS011;19031;51.400;6.770;2023-08-30T09:48:32;9.77;;;5.20;;
32613;SDS011;19031;51.400;6.770;2023-08-30T09:51:07;9.20;;;5.82;;
32613;SDS011;19031;51.400;6.770;2023-08-30T09:53:40;9.55;;;5.18;;
32613;SDS011;19031;51.400;6.770;2023-08-30T09:56:11;10.57;;;5.05;;
32613;SDS011;19031;51.400;6.770;2023-08-30T09:58:41;7.93;;;5.88;;
32613;SDS011;19031;51.400;6.770;2023-08-30T10:01:09;10.43;;;5.93;;
32613;SDS011;19031;51.400;6.770;2023-08-30T10:03:35;8.15;;;5.57;;
32613;SDS011;19031;51.400;6.770;2023-08-30T10:06:06;11.35;;;6.20;;
32613;SDS011;19031;51.400;6.770;2023-08-30T10:08:38;7.78;;;5.30;;
32613;SDS011;19031;51.400;6.770;2023-08-30T10:11:05;10.20;;;5.65;;
32613;SDS011;19031;51.400;6.770;2023-08-30T10:13:34;13.98;;;6.05;;
32613;SDS011;19031;51.400;6.770;2023-08-30T10:16:05;11.02;;;5.55;;
32613;SDS011;19031;51.400;6.770;2023-08-30T10:18:37;7.75;;;5.18;;
32613;SDS011;19031;51.400;6.770;2023-08-30T10:21:06;9.60;;;5.68;;
32613;SDS011;19031;51.400;6.770;2023-08-30T10:26:36;9.88;;;5.93;;
32613;SDS011;19031;51.400;6.770;2023-08-30T10:29:04;11.15;;;5.78;;
32613;SDS011;19031;51.400;6.770;2023-08-30T10:31:32;10.88;;;6.32;;
32613;SDS011;19031;51.400;6.770;2023-08-30T10:33:58;14.75;;;6.63;;
32613;SDS011;19031;51.400;6.770;2023-08-30T10:36:23;10.30;;;5.85;;
32613;SDS011;19031;51.400;6.770;2023-08-30T10:38:50;11.45;;;6.55;;
32613;SDS011;19031;51.400;6.770;2023-08-30T10:41:20;9.88;;;5.93;;
32613;SDS011;19031;51.400;6.770;2023-08-30T10:44:01;8.82;;;5.97;;
32613;SDS011;19031;51.400;6.770;2023-08-30T10:46:37;10.55;;;6.88;;
32613;SDS011;19031;51.400;6.770;2023-08-30T10:51:58;14.40;;;7.32;;
32613;SDS011;19031;51.400;6.770;2023-08-30T10:54:26;11.43;;;6.55;;
32613;SDS011;19031;51.400;6.770;2023-08-30T10:57:04;13.88;;;5.97;;
32613;SDS011;19031;51.400;6.770;2023-08-30T10:59:29;13.95;;;7.60;;
32613;SDS011;19031;51.400;6.770;2023-08-30T11:01:56;11.60;;;6.78;;
32613;SDS011;19031;51.400;6.770;2023-08-30T11:04:25;17.98;;;6.32;;
32613;SDS011;19031;51.400;6.770;2023-08-30T11:06:52;12.65;;;6.30;;
32613;SDS011;19031;51.400;6.770;2023-08-30T11:09:20;11.20;;;6.28;;
32613;SDS011;19031;51.400;6.770;2023-08-30T11:11:48;12.05;;;6.85;;
32613;SDS011;19031;51.400;6.770;2023-08-30T11:14:14;13.85;;;7.32;;
32613;SDS011;19031;51.400;6.770;2023-08-30T11:16:41;14.15;;;8.63;;
32613;SDS011;19031;51.400;6.770;2023-08-30T11:19:10;12.55;;;7.75;;
32613;SDS011;19031;51.400;6.770;2023-08-30T11:21:37;14.13;;;7.75;;
32613;SDS011;19031;51.400;6.770;2023-08-30T11:24:05;14.82;;;8.18;;
32613;SDS011;19031;51.400;6.770;2023-08-30T11:26:32;10.18;;;6.95;;
32613;SDS011;19031;51.400;6.770;2023-08-30T11:28:57;11.23;;;6.32;;
32613;SDS011;19031;51.400;6.770;2023-08-30T11:31:31;10.38;;;7.43;;
32613;SDS011;19031;51.400;6.770;2023-08-30T11:33:57;13.35;;;6.80;;
32613;SDS011;19031;51.400;6.770;2023-08-30T11:36:31;7.93;;;6.18;;
32613;SDS011;19031;51.400;6.770;2023-08-30T11:39:00;7.68;;;5.32;;
32613;SDS011;19031;51.400;6.770;2023-08-30T11:41:28;9.68;;;6.47;;
32613;SDS011;19031;51.400;6.770;2023-08-30T11:43:56;10.27;;;6.53;;
32613;SDS011;19031;51.400;6.770;2023-08-30T11:46:24;9.13;;;5.70;;
32613;SDS011;19031;51.400;6.770;2023-08-30T11:48:50;9.35;;;6.18;;
32613;SDS011;19031;51.400;6.770;2023-08-30T11:51:19;14.52;;;6.30;;
32613;SDS011;19031;51.400;6.770;2023-08-30T11:53:46;10.85;;;6.43;;
32613;SDS011;19031;51.400;6.770;2023-08-30T11:56:12;10.77;;;6.93;;
32613;SDS011;19031;51.400;6.770;2023-08-30T11:58:38;8.52;;;6.00;;
32613;SDS011;19031;51.400;6.770;2023-08-30T12:01:04;8.90;;;5.60;;
32613;SDS011;19031;51.400;6.770;2023-08-30T12:03:30;11.60;;;6.00;;
32613;SDS011;19031;51.400;6.770;2023-08-30T12:05:56;9.68;;;5.15;;
32613;SDS011;19031;51.400;6.770;2023-08-30T12:08:32;6.57;;;3.88;;
32613;SDS011;19031;51.400;6.770;2023-08-30T12:10:58;5.18;;;3.22;;
32613;SDS011;19031;51.400;6.770;2023-08-30T12:13:28;6.68;;;4.00;;
32613;SDS011;19031;51.400;6.770;2023-08-30T12:15:56;5.57;;;3.47;;
32613;SDS011;19031;51.400;6.770;2023-08-30T12:18:23;7.70;;;3.17;;
32613;SDS011;19031;51.400;6.770;2023-08-30T12:20:58;3.95;;;2.67;;
32613;SDS011;19031;51.400;6.770;2023-08-30T12:23:29;4.18;;;3.25;;
32613;SDS011;19031;51.400;6.770;2023-08-30T12:28:24;4.80;;;3.38;;
32613;SDS011;19031;51.400;6.770;2023-08-30T12:30:53;4.95;;;3.55;;
32613;SDS011;19031;51.400;6.770;2023-08-30T12:33:19;4.75;;;3.03;;
32613;SDS011;19031;51.400;6.770;2023-08-30T12:35:46;7.07;;;3.60;;
32613;SDS011;19031;51.400;6.770;2023-08-30T12:38:13;4.70;;;3.15;;
32613;SDS011;19031;51.400;6.770;2023-08-30T12:40:49;4.63;;;3.38;;
32613;SDS011;19031;51.400;6.770;2023-08-30T12:43:18;4.40;;;3.17;;
32613;SDS011;19031;51.400;6.770;2023-08-30T12:45:50;6.28;;;3.70;;
32613;SDS011;19031;51.400;6.770;2023-08-30T12:48:16;6.35;;;3.78;;
32613;SDS011;19031;51.400;6.770;2023-08-30T12:50:44;5.25;;;3.75;;
32613;SDS011;19031;51.400;6.770;2023-08-30T12:53:12;4.53;;;3.60;;
32613;SDS011;19031;51.400;6.770;2023-08-30T12:55:41;4.45;;;3.22;;
32613;SDS011;19031;51.400;6.770;2023-08-30T12:58:09;7.57;;;4.28;;
32613;SDS011;19031;51.400;6.770;2023-08-30T13:00:36;9.32;;;4.15;;
32613;SDS011;19031;51.400;6.770;2023-08-30T13:03:02;5.68;;;4.53;;
32613;SDS011;19031;51.400;6.770;2023-08-30T13:05:29;7.38;;;3.95;;
32613;SDS011;19031;51.400;6.770;2023-08-30T13:08:00;5.60;;;3.85;;
32613;SDS011;19031;51.400;6.770;2023-08-30T13:10:28;5.57;;;3.92;;
32613;SDS011;19031;51.400;6.770;2023-08-30T13:13:14;9.63;;;4.53;;
32613;SDS011;19031;51.400;6.770;2023-08-30T13:15:40;8.57;;;4.30;;
32613;SDS011;19031;51.400;6.770;2023-08-30T13:18:06;7.38;;;4.47;;
32613;SDS011;19031;51.400;6.770;2023-08-30T13:20:37;5.78;;;4.60;;
32613;SDS011;19031;51.400;6.770;2023-08-30T13:23:06;6.25;;;3.78;;
32613;SDS011;19031;51.400;6.770;2023-08-30T13:25:31;5.95;;;4.15;;
32613;SDS011;19031;51.400;6.770;2023-08-30T13:27:57;5.65;;;4.28;;
32613;SDS011;19031;51.400;6.770;2023-08-30T13:30:23;8.68;;;4.65;;
32613;SDS011;19031;51.400;6.770;2023-08-30T13:32:48;5.13;;;4.00;;
32613;SDS011;19031;51.400;6.770;2023-08-30T13:35:17;8.25;;;4.10;;
32613;SDS011;19031;51.400;6.770;2023-08-30T13:37:43;4.82;;;3.72;;
32613;SDS011;19031;51.400;6.770;2023-08-30T13:40:09;6.07;;;4.35;;
32613;SDS011;19031;51.400;6.770;2023-08-30T13:42:38;3.85;;;3.05;;
32613;SDS011;19031;51.400;6.770;2023-08-30T13:45:07;4.82;;;3.05;;
32613;SDS011;19031;51.400;6.770;2023-08-30T13:47:34;5.75;;;3.63;;
32613;SDS011;19031;51.400;6.770;2023-08-30T13:50:01;3.75;;;3.05;;
32613;SDS011;19031;51.400;6.770;2023-08-30T13:52:29;3.72;;;2.88;;
32613;SDS011;19031;51.400;6.770;2023-08-30T13:54:55;3.28;;;2.30;;
32613;SDS011;19031;51.400;6.770;2023-08-30T13:57:21;4.10;;;2.75;;
32613;SDS011;19031;51.400;6.770;2023-08-30T13:59:46;4.15;;;2.60;;
32613;SDS011;19031;51.400;6.770;2023-08-30T14:02:12;3.97;;;2.60;;
32613;SDS011;19031;51.400;6.770;2023-08-30T14:04:38;3.70;;;2.40;;
32613;SDS011;19031;51.400;6.770;2023-08-30T14:07:07;4.70;;;2.58;;
32613;SDS011;19031;51.400;6.770;2023-08-30T14:09:34;4.68;;;2.53;;
32613;SDS011;19031;51.400;6.770;2023-08-30T14:12:00;3.65;;;2.47;;
32613;SDS011;19031;51.400;6.770;2023-08-30T14:14:28;5.28;;;2.85;;
32613;SDS011;19031;51.400;6.770;2023-08-30T14:16:57;3.85;;;2.70;;
32613;SDS011;19031;51.400;6.770;2023-08-30T14:19:23;5.38;;;3.22;;
32613;SDS011;19031;51.400;6.770;2023-08-30T14:21:48;4.95;;;2.90;;
32613;SDS011;19031;51.400;6.770;2023-08-30T14:24:15;5.03;;;3.30;;
32613;SDS011;19031;51.400;6.770;2023-08-30T14:26:41;5.10;;;3.20;;
32613;SDS011;19031;51.400;6.770;2023-08-30T14:29:07;4.90;;;3.15;;
32613;SDS011;19031;51.400;6.770;2023-08-30T14:31:32;3.78;;;3.00;;
32613;SDS011;19031;51.400;6.770;2023-08-30T14:33:58;6.60;;;3.40;;
32613;SDS011;19031;51.400;6.770;2023-08-30T14:36:24;5.30;;;3.65;;
32613;SDS011;19031;51.400;6.770;2023-08-30T14:38:50;5.18;;;3.50;;
32613;SDS011;19031;51.400;6.770;2023-08-30T14:41:16;6.85;;;3.80;;
32613;SDS011;19031;51.400;6.770;2023-08-30T14:43:42;6.65;;;3.65;;
32613;SDS011;19031;51.400;6.770;2023-08-30T14:46:08;6.47;;;3.58;;
32613;SDS011;19031;51.400;6.770;2023-08-30T14:48:35;5.50;;;3.83;;